sensor_id;sensor_type;location;lat;lon;timestamp;temperature;humidity
670;DHT22;317;48.758;9.302;2022-10-17T00:01:05;13.10;99.90
670;DHT22;317;48.758;9.302;2022-10-17T00:03:32;13.50;99.90
670;DHT22;317;48.758;9.302;2022-10-17T00:06:04;13.50;99.90
670;DHT22;317;48.758;9.302;2022-10-17T00:08:31;13.10;99.90
670;DHT22;317;48.758;9.302;2022-10-17T00:11:01;13.30;99.90
670;DHT22;317;48.758;9.302;2022-10-17T00:13:29;13.40;99.90
670;DHT22;317;48.758;9.302;2022-10-17T00:15:56;13.20;99.90
670;DHT22;317;48.758;9.302;2022-10-17T00:18:22;13.10;99.90
670;DHT22;317;48.758;9.302;2022-10-17T00:20:49;13.00;99.90
670;DHT22;317;48.758;9.302;2022-10-17T00:23:17;13.10;99.90
670;DHT22;317;48.758;9.302;2022-10-17T00:25:43;12.80;99.90
670;DHT22;317;48.758;9.302;2022-10-17T00:28:13;13.20;99.90
670;DHT22;317;48.758;9.302;2022-10-17T00:30:40;13.10;99.90
670;DHT22;317;48.758;9.302;2022-10-17T00:33:08;13.10;99.90
670;DHT22;317;48.758;9.302;2022-10-17T00:35:34;13.10;99.90
670;DHT22;317;48.758;9.302;2022-10-17T00:38:01;13.00;99.90
670;DHT22;317;48.758;9.302;2022-10-17T00:40:28;13.00;99.90
670;DHT22;317;48.758;9.302;2022-10-17T00:42:55;12.60;99.90
670;DHT22;317;48.758;9.302;2022-10-17T00:45:25;12.90;99.90
670;DHT22;317;48.758;9.302;2022-10-17T00:47:57;12.60;99.90
670;DHT22;317;48.758;9.302;2022-10-17T00:50:26;12.80;99.90
670;DHT22;317;48.758;9.302;2022-10-17T00:52:54;12.60;99.90
670;DHT22;317;48.758;9.302;2022-10-17T00:55:23;12.90;99.90
670;DHT22;317;48.758;9.302;2022-10-17T00:57:51;13.00;99.90
670;DHT22;317;48.758;9.302;2022-10-17T01:00:18;12.90;99.90
670;DHT22;317;48.758;9.302;2022-10-17T01:02:47;12.90;99.90
670;DHT22;317;48.758;9.302;2022-10-17T01:05:15;12.90;99.90
670;DHT22;317;48.758;9.302;2022-10-17T01:07:43;12.50;99.90
670;DHT22;317;48.758;9.302;2022-10-17T01:10:11;12.90;99.90
670;DHT22;317;48.758;9.302;2022-10-17T01:12:47;12.70;99.90
670;DHT22;317;48.758;9.302;2022-10-17T01:15:22;12.90;99.90
670;DHT22;317;48.758;9.302;2022-10-17T01:18:02;12.90;99.90
670;DHT22;317;48.758;9.302;2022-10-17T01:21:01;12.70;99.90
670;DHT22;317;48.758;9.302;2022-10-17T01:26:46;12.70;99.90
670;DHT22;317;48.758;9.302;2022-10-17T01:29:31;12.50;99.90
670;DHT22;317;48.758;9.302;2022-10-17T01:32:07;12.70;99.90
670;DHT22;317;48.758;9.302;2022-10-17T01:34:41;12.40;99.90
670;DHT22;317;48.758;9.302;2022-10-17T01:37:17;12.40;99.90
670;DHT22;317;48.758;9.302;2022-10-17T01:39:49;12.50;99.90
670;DHT22;317;48.758;9.302;2022-10-17T01:42:20;12.40;99.90
670;DHT22;317;48.758;9.302;2022-10-17T01:44:54;12.20;99.90
670;DHT22;317;48.758;9.302;2022-10-17T01:47:26;12.30;99.90
670;DHT22;317;48.758;9.302;2022-10-17T01:49:56;12.20;99.90
670;DHT22;317;48.758;9.302;2022-10-17T01:52:27;12.30;99.90
670;DHT22;317;48.758;9.302;2022-10-17T01:54:59;12.30;99.90
670;DHT22;317;48.758;9.302;2022-10-17T01:57:33;12.20;99.90
670;DHT22;317;48.758;9.302;2022-10-17T02:00:03;12.20;99.90
670;DHT22;317;48.758;9.302;2022-10-17T02:02:33;12.70;99.90
670;DHT22;317;48.758;9.302;2022-10-17T02:05:02;12.40;99.90
670;DHT22;317;48.758;9.302;2022-10-17T02:07:29;12.30;99.90
670;DHT22;317;48.758;9.302;2022-10-17T02:09:56;12.00;99.90
670;DHT22;317;48.758;9.302;2022-10-17T02:12:44;12.40;99.90
670;DHT22;317;48.758;9.302;2022-10-17T02:15:28;12.10;99.90
670;DHT22;317;48.758;9.302;2022-10-17T02:18:10;12.00;99.90
670;DHT22;317;48.758;9.302;2022-10-17T02:20:48;12.20;99.90
670;DHT22;317;48.758;9.302;2022-10-17T02:23:23;11.90;99.90
670;DHT22;317;48.758;9.302;2022-10-17T02:25:59;12.30;99.90
670;DHT22;317;48.758;9.302;2022-10-17T02:28:30;11.90;99.90
670;DHT22;317;48.758;9.302;2022-10-17T02:31:05;12.00;99.90
670;DHT22;317;48.758;9.302;2022-10-17T02:33:37;12.40;99.90
670;DHT22;317;48.758;9.302;2022-10-17T02:36:10;12.10;99.90
670;DHT22;317;48.758;9.302;2022-10-17T02:38:39;11.80;99.90
670;DHT22;317;48.758;9.302;2022-10-17T02:41:10;12.00;99.90
670;DHT22;317;48.758;9.302;2022-10-17T02:43:39;12.10;99.90
670;DHT22;317;48.758;9.302;2022-10-17T02:46:10;11.90;99.90
670;DHT22;317;48.758;9.302;2022-10-17T02:48:42;11.80;99.90
670;DHT22;317;48.758;9.302;2022-10-17T02:51:17;11.70;99.90
670;DHT22;317;48.758;9.302;2022-10-17T02:53:53;11.60;99.90
670;DHT22;317;48.758;9.302;2022-10-17T02:56:23;12.10;99.90
670;DHT22;317;48.758;9.302;2022-10-17T02:58:54;11.80;99.90
670;DHT22;317;48.758;9.302;2022-10-17T03:01:23;11.70;99.90
670;DHT22;317;48.758;9.302;2022-10-17T03:04:03;12.30;99.90
670;DHT22;317;48.758;9.302;2022-10-17T03:06:30;12.10;99.90
670;DHT22;317;48.758;9.302;2022-10-17T03:08:57;11.70;99.90
670;DHT22;317;48.758;9.302;2022-10-17T03:11:24;12.30;99.90
670;DHT22;317;48.758;9.302;2022-10-17T03:13:50;12.00;99.90
670;DHT22;317;48.758;9.302;2022-10-17T03:16:17;11.70;99.90
670;DHT22;317;48.758;9.302;2022-10-17T03:18:44;11.50;99.90
670;DHT22;317;48.758;9.302;2022-10-17T03:21:12;11.70;99.90
670;DHT22;317;48.758;9.302;2022-10-17T03:23:39;11.60;99.90
670;DHT22;317;48.758;9.302;2022-10-17T03:26:07;11.70;99.90
670;DHT22;317;48.758;9.302;2022-10-17T03:28:34;11.50;99.90
670;DHT22;317;48.758;9.302;2022-10-17T03:31:05;11.90;99.90
670;DHT22;317;48.758;9.302;2022-10-17T03:33:32;11.60;99.90
670;DHT22;317;48.758;9.302;2022-10-17T03:36:04;11.40;99.90
670;DHT22;317;48.758;9.302;2022-10-17T03:38:33;11.70;99.90
670;DHT22;317;48.758;9.302;2022-10-17T03:41:00;11.60;99.90
670;DHT22;317;48.758;9.302;2022-10-17T03:43:27;11.60;99.90
670;DHT22;317;48.758;9.302;2022-10-17T03:45:54;11.70;99.90
670;DHT22;317;48.758;9.302;2022-10-17T03:48:20;11.50;99.90
670;DHT22;317;48.758;9.302;2022-10-17T03:50:47;11.40;99.90
670;DHT22;317;48.758;9.302;2022-10-17T03:53:14;11.90;99.90
670;DHT22;317;48.758;9.302;2022-10-17T03:55:42;11.70;99.90
670;DHT22;317;48.758;9.302;2022-10-17T03:58:09;11.80;99.90
670;DHT22;317;48.758;9.302;2022-10-17T04:00:36;11.50;99.90
670;DHT22;317;48.758;9.302;2022-10-17T04:03:03;11.90;99.90
670;DHT22;317;48.758;9.302;2022-10-17T04:05:30;11.80;99.90
670;DHT22;317;48.758;9.302;2022-10-17T04:07:56;11.50;99.90
670;DHT22;317;48.758;9.302;2022-10-17T04:10:23;11.80;99.90
670;DHT22;317;48.758;9.302;2022-10-17T04:12:52;11.50;99.90
670;DHT22;317;48.758;9.302;2022-10-17T04:15:18;11.70;99.90
670;DHT22;317;48.758;9.302;2022-10-17T04:17:45;11.40;99.90
670;DHT22;317;48.758;9.302;2022-10-17T04:20:12;11.40;99.90
670;DHT22;317;48.758;9.302;2022-10-17T04:22:39;11.40;99.90
670;DHT22;317;48.758;9.302;2022-10-17T04:25:06;11.30;99.90
670;DHT22;317;48.758;9.302;2022-10-17T04:27:33;11.70;99.90
670;DHT22;317;48.758;9.302;2022-10-17T04:30:01;11.70;99.90
670;DHT22;317;48.758;9.302;2022-10-17T04:32:27;11.40;99.90
670;DHT22;317;48.758;9.302;2022-10-17T04:34:54;11.40;99.90
670;DHT22;317;48.758;9.302;2022-10-17T04:37:21;11.30;99.90
670;DHT22;317;48.758;9.302;2022-10-17T04:39:48;11.50;99.90
670;DHT22;317;48.758;9.302;2022-10-17T04:42:14;11.60;99.90
670;DHT22;317;48.758;9.302;2022-10-17T04:44:41;11.70;99.90
670;DHT22;317;48.758;9.302;2022-10-17T04:47:09;11.70;99.90
670;DHT22;317;48.758;9.302;2022-10-17T04:49:36;11.40;99.90
670;DHT22;317;48.758;9.302;2022-10-17T04:52:03;11.60;99.90
670;DHT22;317;48.758;9.302;2022-10-17T04:54:30;11.60;99.90
670;DHT22;317;48.758;9.302;2022-10-17T04:56:57;11.20;99.90
670;DHT22;317;48.758;9.302;2022-10-17T04:59:23;11.50;99.90
670;DHT22;317;48.758;9.302;2022-10-17T05:01:50;11.50;99.90
670;DHT22;317;48.758;9.302;2022-10-17T05:04:19;11.70;99.90
670;DHT22;317;48.758;9.302;2022-10-17T05:06:45;11.60;99.90
670;DHT22;317;48.758;9.302;2022-10-17T05:09:12;11.10;99.90
670;DHT22;317;48.758;9.302;2022-10-17T05:11:41;11.40;99.90
670;DHT22;317;48.758;9.302;2022-10-17T05:14:10;11.20;99.90
670;DHT22;317;48.758;9.302;2022-10-17T05:16:37;11.40;99.90
670;DHT22;317;48.758;9.302;2022-10-17T05:19:04;10.90;99.90
670;DHT22;317;48.758;9.302;2022-10-17T05:21:32;10.90;99.90
670;DHT22;317;48.758;9.302;2022-10-17T05:23:59;10.90;99.90
670;DHT22;317;48.758;9.302;2022-10-17T05:26:25;11.10;99.90
670;DHT22;317;48.758;9.302;2022-10-17T05:28:52;11.40;99.90
670;DHT22;317;48.758;9.302;2022-10-17T05:31:19;11.10;99.90
670;DHT22;317;48.758;9.302;2022-10-17T05:33:46;11.00;99.90
670;DHT22;317;48.758;9.302;2022-10-17T05:36:13;11.40;99.90
670;DHT22;317;48.758;9.302;2022-10-17T05:38:41;11.10;99.90
670;DHT22;317;48.758;9.302;2022-10-17T05:41:09;11.50;99.90
670;DHT22;317;48.758;9.302;2022-10-17T05:43:35;11.00;99.90
670;DHT22;317;48.758;9.302;2022-10-17T05:46:03;11.10;99.90
670;DHT22;317;48.758;9.302;2022-10-17T05:48:30;11.20;99.90
670;DHT22;317;48.758;9.302;2022-10-17T05:50:58;11.10;99.90
670;DHT22;317;48.758;9.302;2022-10-17T05:53:25;11.40;99.90
670;DHT22;317;48.758;9.302;2022-10-17T05:55:56;11.20;99.90
670;DHT22;317;48.758;9.302;2022-10-17T05:58:23;11.50;99.90
670;DHT22;317;48.758;9.302;2022-10-17T06:00:56;11.20;99.90
670;DHT22;317;48.758;9.302;2022-10-17T06:03:24;11.10;99.90
670;DHT22;317;48.758;9.302;2022-10-17T06:05:51;11.10;99.90
670;DHT22;317;48.758;9.302;2022-10-17T06:08:18;11.30;99.90
670;DHT22;317;48.758;9.302;2022-10-17T06:10:46;11.60;99.90
670;DHT22;317;48.758;9.302;2022-10-17T06:13:14;11.40;99.90
670;DHT22;317;48.758;9.302;2022-10-17T06:15:41;11.40;99.90
670;DHT22;317;48.758;9.302;2022-10-17T06:18:09;11.70;99.90
670;DHT22;317;48.758;9.302;2022-10-17T06:20:36;11.80;99.90
670;DHT22;317;48.758;9.302;2022-10-17T06:23:04;11.50;99.90
670;DHT22;317;48.758;9.302;2022-10-17T06:25:31;11.90;99.90
670;DHT22;317;48.758;9.302;2022-10-17T06:27:58;12.00;99.90
670;DHT22;317;48.758;9.302;2022-10-17T06:30:26;11.90;99.90
670;DHT22;317;48.758;9.302;2022-10-17T06:32:53;12.10;99.90
670;DHT22;317;48.758;9.302;2022-10-17T06:35:20;12.00;99.90
670;DHT22;317;48.758;9.302;2022-10-17T06:37:47;12.10;99.90
670;DHT22;317;48.758;9.302;2022-10-17T06:40:14;12.10;99.90
670;DHT22;317;48.758;9.302;2022-10-17T06:42:48;12.20;99.90
670;DHT22;317;48.758;9.302;2022-10-17T06:45:17;11.90;99.90
670;DHT22;317;48.758;9.302;2022-10-17T06:47:45;12.00;99.90
670;DHT22;317;48.758;9.302;2022-10-17T06:50:13;12.50;99.90
670;DHT22;317;48.758;9.302;2022-10-17T06:52:40;12.60;99.90
670;DHT22;317;48.758;9.302;2022-10-17T06:55:07;12.40;99.90
670;DHT22;317;48.758;9.302;2022-10-17T06:57:34;12.50;99.90
670;DHT22;317;48.758;9.302;2022-10-17T07:00:02;12.50;99.90
670;DHT22;317;48.758;9.302;2022-10-17T07:02:28;12.10;99.90
670;DHT22;317;48.758;9.302;2022-10-17T07:04:57;12.20;99.90
670;DHT22;317;48.758;9.302;2022-10-17T07:07:23;12.50;99.90
670;DHT22;317;48.758;9.302;2022-10-17T07:09:50;12.10;99.90
670;DHT22;317;48.758;9.302;2022-10-17T07:12:17;12.60;99.90
670;DHT22;317;48.758;9.302;2022-10-17T07:14:46;12.70;99.90
670;DHT22;317;48.758;9.302;2022-10-17T07:17:16;12.50;99.90
670;DHT22;317;48.758;9.302;2022-10-17T07:19:44;13.10;99.90
670;DHT22;317;48.758;9.302;2022-10-17T07:22:15;13.20;99.90
670;DHT22;317;48.758;9.302;2022-10-17T07:24:45;12.90;99.90
670;DHT22;317;48.758;9.302;2022-10-17T07:27:12;13.40;99.90
670;DHT22;317;48.758;9.302;2022-10-17T07:29:39;13.20;99.90
670;DHT22;317;48.758;9.302;2022-10-17T07:32:06;13.30;99.90
670;DHT22;317;48.758;9.302;2022-10-17T07:34:34;13.40;99.90
670;DHT22;317;48.758;9.302;2022-10-17T07:37:03;13.50;99.90
670;DHT22;317;48.758;9.302;2022-10-17T07:39:36;13.40;99.90
670;DHT22;317;48.758;9.302;2022-10-17T07:42:04;12.90;99.90
670;DHT22;317;48.758;9.302;2022-10-17T07:44:33;13.50;99.90
670;DHT22;317;48.758;9.302;2022-10-17T07:47:00;13.60;99.90
670;DHT22;317;48.758;9.302;2022-10-17T07:49:28;13.60;99.90
670;DHT22;317;48.758;9.302;2022-10-17T07:51:55;13.70;99.90
670;DHT22;317;48.758;9.302;2022-10-17T07:54:22;13.70;99.90
670;DHT22;317;48.758;9.302;2022-10-17T07:56:50;13.40;99.90
670;DHT22;317;48.758;9.302;2022-10-17T07:59:18;14.00;99.90
670;DHT22;317;48.758;9.302;2022-10-17T08:01:44;14.10;99.90
670;DHT22;317;48.758;9.302;2022-10-17T08:04:11;14.10;99.90
670;DHT22;317;48.758;9.302;2022-10-17T08:06:38;14.20;99.90
670;DHT22;317;48.758;9.302;2022-10-17T08:09:05;14.30;99.90
670;DHT22;317;48.758;9.302;2022-10-17T08:11:32;14.40;99.90
670;DHT22;317;48.758;9.302;2022-10-17T08:14:01;14.40;99.90
670;DHT22;317;48.758;9.302;2022-10-17T08:16:28;14.60;99.90
670;DHT22;317;48.758;9.302;2022-10-17T08:18:55;14.70;99.90
670;DHT22;317;48.758;9.302;2022-10-17T08:21:22;14.80;99.90
670;DHT22;317;48.758;9.302;2022-10-17T08:23:49;14.90;99.90
670;DHT22;317;48.758;9.302;2022-10-17T08:26:16;15.00;99.90
670;DHT22;317;48.758;9.302;2022-10-17T08:28:45;15.20;99.90
670;DHT22;317;48.758;9.302;2022-10-17T08:31:15;15.30;99.90
670;DHT22;317;48.758;9.302;2022-10-17T08:33:44;15.50;99.90
670;DHT22;317;48.758;9.302;2022-10-17T08:36:12;15.60;99.90
670;DHT22;317;48.758;9.302;2022-10-17T08:38:39;15.80;99.90
670;DHT22;317;48.758;9.302;2022-10-17T08:41:13;16.00;99.90
670;DHT22;317;48.758;9.302;2022-10-17T08:44:01;16.10;99.90
670;DHT22;317;48.758;9.302;2022-10-17T08:46:46;16.30;99.90
670;DHT22;317;48.758;9.302;2022-10-17T08:49:19;16.50;99.90
670;DHT22;317;48.758;9.302;2022-10-17T08:51:53;16.60;99.90
670;DHT22;317;48.758;9.302;2022-10-17T08:54:26;16.70;99.90
670;DHT22;317;48.758;9.302;2022-10-17T08:56:56;16.90;99.90
670;DHT22;317;48.758;9.302;2022-10-17T08:59:26;17.10;99.90
670;DHT22;317;48.758;9.302;2022-10-17T09:02:00;17.20;99.90
670;DHT22;317;48.758;9.302;2022-10-17T09:04:49;17.40;99.90
670;DHT22;317;48.758;9.302;2022-10-17T09:07:23;17.60;99.90
670;DHT22;317;48.758;9.302;2022-10-17T09:09:59;17.80;99.90
670;DHT22;317;48.758;9.302;2022-10-17T09:12:36;17.90;99.90
670;DHT22;317;48.758;9.302;2022-10-17T09:15:28;18.20;99.90
670;DHT22;317;48.758;9.302;2022-10-17T09:18:01;18.30;99.90
670;DHT22;317;48.758;9.302;2022-10-17T09:20:31;18.40;99.90
670;DHT22;317;48.758;9.302;2022-10-17T09:23:01;18.60;99.90
670;DHT22;317;48.758;9.302;2022-10-17T09:25:39;18.70;99.90
670;DHT22;317;48.758;9.302;2022-10-17T09:28:14;18.90;99.90
670;DHT22;317;48.758;9.302;2022-10-17T09:30:45;19.00;99.90
670;DHT22;317;48.758;9.302;2022-10-17T09:33:16;19.20;99.90
670;DHT22;317;48.758;9.302;2022-10-17T09:35:43;19.40;99.90
670;DHT22;317;48.758;9.302;2022-10-17T09:38:15;19.60;99.90
670;DHT22;317;48.758;9.302;2022-10-17T09:40:43;19.90;99.90
670;DHT22;317;48.758;9.302;2022-10-17T09:43:12;20.20;99.90
670;DHT22;317;48.758;9.302;2022-10-17T09:45:45;20.30;99.90
670;DHT22;317;48.758;9.302;2022-10-17T09:48:21;20.50;99.90
670;DHT22;317;48.758;9.302;2022-10-17T09:50:52;20.70;99.90
670;DHT22;317;48.758;9.302;2022-10-17T09:53:24;21.00;99.90
670;DHT22;317;48.758;9.302;2022-10-17T09:55:54;21.30;99.90
670;DHT22;317;48.758;9.302;2022-10-17T09:58:22;21.40;99.90
670;DHT22;317;48.758;9.302;2022-10-17T10:00:49;21.60;99.90
670;DHT22;317;48.758;9.302;2022-10-17T10:03:21;21.60;99.90
670;DHT22;317;48.758;9.302;2022-10-17T10:05:59;21.80;99.90
670;DHT22;317;48.758;9.302;2022-10-17T10:08:30;22.00;99.90
670;DHT22;317;48.758;9.302;2022-10-17T10:10:59;22.20;99.90
670;DHT22;317;48.758;9.302;2022-10-17T10:13:28;22.40;99.90
670;DHT22;317;48.758;9.302;2022-10-17T10:16:13;22.50;99.90
670;DHT22;317;48.758;9.302;2022-10-17T10:18:42;22.70;99.90
670;DHT22;317;48.758;9.302;2022-10-17T10:21:12;22.90;99.90
670;DHT22;317;48.758;9.302;2022-10-17T10:23:40;23.10;99.90
670;DHT22;317;48.758;9.302;2022-10-17T10:26:26;23.10;99.90
670;DHT22;317;48.758;9.302;2022-10-17T10:28:56;23.30;99.90
670;DHT22;317;48.758;9.302;2022-10-17T10:31:29;23.40;99.90
670;DHT22;317;48.758;9.302;2022-10-17T10:34:01;23.60;99.90
670;DHT22;317;48.758;9.302;2022-10-17T10:36:47;23.70;99.90
670;DHT22;317;48.758;9.302;2022-10-17T10:39:33;23.80;99.90
670;DHT22;317;48.758;9.302;2022-10-17T10:42:02;24.00;99.90
670;DHT22;317;48.758;9.302;2022-10-17T10:44:31;24.10;99.90
670;DHT22;317;48.758;9.302;2022-10-17T10:47:20;24.30;99.90
670;DHT22;317;48.758;9.302;2022-10-17T10:49:50;24.60;99.90
670;DHT22;317;48.758;9.302;2022-10-17T10:52:25;24.70;99.90
670;DHT22;317;48.758;9.302;2022-10-17T10:54:58;24.80;99.90
670;DHT22;317;48.758;9.302;2022-10-17T10:57:32;24.80;99.90
670;DHT22;317;48.758;9.302;2022-10-17T11:00:03;25.00;99.90
670;DHT22;317;48.758;9.302;2022-10-17T11:02:37;25.10;99.90
670;DHT22;317;48.758;9.302;2022-10-17T11:05:13;25.40;99.90
670;DHT22;317;48.758;9.302;2022-10-17T11:07:45;25.60;99.90
670;DHT22;317;48.758;9.302;2022-10-17T11:10:22;26.00;99.90
670;DHT22;317;48.758;9.302;2022-10-17T11:12:53;26.50;97.00
670;DHT22;317;48.758;9.302;2022-10-17T11:15:25;26.60;94.60
670;DHT22;317;48.758;9.302;2022-10-17T11:17:58;26.80;93.50
670;DHT22;317;48.758;9.302;2022-10-17T11:20:31;27.00;92.90
670;DHT22;317;48.758;9.302;2022-10-17T11:23:09;27.50;91.70
670;DHT22;317;48.758;9.302;2022-10-17T11:25:39;27.60;91.60
670;DHT22;317;48.758;9.302;2022-10-17T11:28:12;27.90;89.90
670;DHT22;317;48.758;9.302;2022-10-17T11:30:45;28.10;87.00
670;DHT22;317;48.758;9.302;2022-10-17T11:33:23;28.40;83.00
670;DHT22;317;48.758;9.302;2022-10-17T11:35:56;28.50;81.10
670;DHT22;317;48.758;9.302;2022-10-17T11:38:35;28.90;77.40
670;DHT22;317;48.758;9.302;2022-10-17T11:41:05;29.30;76.00
670;DHT22;317;48.758;9.302;2022-10-17T11:43:39;29.60;73.40
670;DHT22;317;48.758;9.302;2022-10-17T11:46:12;29.80;72.40
670;DHT22;317;48.758;9.302;2022-10-17T11:48:51;30.30;71.90
670;DHT22;317;48.758;9.302;2022-10-17T11:51:22;30.50;68.70
670;DHT22;317;48.758;9.302;2022-10-17T11:53:53;30.80;65.80
670;DHT22;317;48.758;9.302;2022-10-17T11:56:26;31.10;64.80
670;DHT22;317;48.758;9.302;2022-10-17T11:59:00;31.50;64.60
670;DHT22;317;48.758;9.302;2022-10-17T12:01:37;31.70;62.60
670;DHT22;317;48.758;9.302;2022-10-17T12:04:18;31.90;60.30
670;DHT22;317;48.758;9.302;2022-10-17T12:07:00;32.00;59.70
670;DHT22;317;48.758;9.302;2022-10-17T12:09:37;32.10;59.10
670;DHT22;317;48.758;9.302;2022-10-17T12:12:06;32.40;57.30
670;DHT22;317;48.758;9.302;2022-10-17T12:14:39;32.50;57.10
670;DHT22;317;48.758;9.302;2022-10-17T12:17:28;32.70;57.10
670;DHT22;317;48.758;9.302;2022-10-17T12:20:25;32.90;55.50
670;DHT22;317;48.758;9.302;2022-10-17T12:22:55;33.30;52.70
670;DHT22;317;48.758;9.302;2022-10-17T12:25:25;33.70;50.40
670;DHT22;317;48.758;9.302;2022-10-17T12:28:10;33.70;47.30
670;DHT22;317;48.758;9.302;2022-10-17T12:30:49;33.80;46.40
670;DHT22;317;48.758;9.302;2022-10-17T12:33:17;33.60;45.40
670;DHT22;317;48.758;9.302;2022-10-17T12:35:47;33.70;45.30
670;DHT22;317;48.758;9.302;2022-10-17T12:38:25;33.90;45.80
670;DHT22;317;48.758;9.302;2022-10-17T12:41:00;34.10;44.10
670;DHT22;317;48.758;9.302;2022-10-17T12:43:43;34.30;44.20
670;DHT22;317;48.758;9.302;2022-10-17T12:46:10;34.50;43.60
670;DHT22;317;48.758;9.302;2022-10-17T12:49:00;34.30;42.50
670;DHT22;317;48.758;9.302;2022-10-17T12:51:27;34.50;42.00
670;DHT22;317;48.758;9.302;2022-10-17T12:54:00;34.50;42.00
670;DHT22;317;48.758;9.302;2022-10-17T12:56:34;34.50;41.90
670;DHT22;317;48.758;9.302;2022-10-17T12:59:11;34.60;41.40
670;DHT22;317;48.758;9.302;2022-10-17T13:01:39;34.70;41.20
670;DHT22;317;48.758;9.302;2022-10-17T13:04:09;34.60;41.40
670;DHT22;317;48.758;9.302;2022-10-17T13:06:39;34.60;41.60
670;DHT22;317;48.758;9.302;2022-10-17T13:09:21;34.70;41.50
670;DHT22;317;48.758;9.302;2022-10-17T13:11:51;34.90;40.70
670;DHT22;317;48.758;9.302;2022-10-17T13:14:20;34.90;40.30
670;DHT22;317;48.758;9.302;2022-10-17T13:16:52;34.80;40.40
670;DHT22;317;48.758;9.302;2022-10-17T13:19:21;34.80;40.70
670;DHT22;317;48.758;9.302;2022-10-17T13:21:49;34.80;41.00
670;DHT22;317;48.758;9.302;2022-10-17T13:24:26;34.70;40.70
670;DHT22;317;48.758;9.302;2022-10-17T13:26:55;34.60;41.20
670;DHT22;317;48.758;9.302;2022-10-17T13:29:22;34.50;40.90
670;DHT22;317;48.758;9.302;2022-10-17T13:31:52;34.40;40.70
670;DHT22;317;48.758;9.302;2022-10-17T13:34:24;34.50;40.50
670;DHT22;317;48.758;9.302;2022-10-17T13:36:53;34.60;40.60
670;DHT22;317;48.758;9.302;2022-10-17T13:39:24;34.80;40.50
670;DHT22;317;48.758;9.302;2022-10-17T13:41:54;34.80;40.10
670;DHT22;317;48.758;9.302;2022-10-17T13:44:24;34.80;39.80
670;DHT22;317;48.758;9.302;2022-10-17T13:46:52;34.90;38.80
670;DHT22;317;48.758;9.302;2022-10-17T13:49:24;35.00;40.70
670;DHT22;317;48.758;9.302;2022-10-17T13:51:53;35.00;42.10
670;DHT22;317;48.758;9.302;2022-10-17T13:54:36;35.30;43.20
670;DHT22;317;48.758;9.302;2022-10-17T13:57:15;35.10;43.90
670;DHT22;317;48.758;9.302;2022-10-17T13:59:43;35.30;43.50
670;DHT22;317;48.758;9.302;2022-10-17T14:02:14;35.20;43.20
670;DHT22;317;48.758;9.302;2022-10-17T14:04:41;35.10;43.20
670;DHT22;317;48.758;9.302;2022-10-17T14:07:20;35.10;43.30
670;DHT22;317;48.758;9.302;2022-10-17T14:09:51;35.00;43.80
670;DHT22;317;48.758;9.302;2022-10-17T14:12:19;35.00;43.60
670;DHT22;317;48.758;9.302;2022-10-17T14:14:49;34.90;43.70
670;DHT22;317;48.758;9.302;2022-10-17T14:17:21;35.10;43.60
670;DHT22;317;48.758;9.302;2022-10-17T14:19:51;35.10;43.60
670;DHT22;317;48.758;9.302;2022-10-17T14:22:25;35.20;42.80
670;DHT22;317;48.758;9.302;2022-10-17T14:24:54;35.40;42.90
670;DHT22;317;48.758;9.302;2022-10-17T14:27:29;35.10;42.50
670;DHT22;317;48.758;9.302;2022-10-17T14:30:00;34.90;42.80
670;DHT22;317;48.758;9.302;2022-10-17T14:32:30;35.00;43.20
670;DHT22;317;48.758;9.302;2022-10-17T14:35:00;35.00;42.70
670;DHT22;317;48.758;9.302;2022-10-17T14:37:33;35.00;42.80
670;DHT22;317;48.758;9.302;2022-10-17T14:40:05;35.10;42.80
670;DHT22;317;48.758;9.302;2022-10-17T14:42:37;35.00;42.60
670;DHT22;317;48.758;9.302;2022-10-17T14:45:08;34.90;42.90
670;DHT22;317;48.758;9.302;2022-10-17T14:47:38;35.10;42.60
670;DHT22;317;48.758;9.302;2022-10-17T14:50:15;34.80;42.20
670;DHT22;317;48.758;9.302;2022-10-17T14:52:58;34.50;42.60
670;DHT22;317;48.758;9.302;2022-10-17T14:55:29;34.60;42.40
670;DHT22;317;48.758;9.302;2022-10-17T14:57:56;34.50;42.90
670;DHT22;317;48.758;9.302;2022-10-17T15:00:23;34.40;42.60
670;DHT22;317;48.758;9.302;2022-10-17T15:02:52;34.30;42.60
670;DHT22;317;48.758;9.302;2022-10-17T15:05:20;34.20;42.70
670;DHT22;317;48.758;9.302;2022-10-17T15:07:48;34.40;42.30
670;DHT22;317;48.758;9.302;2022-10-17T15:10:30;34.20;42.30
670;DHT22;317;48.758;9.302;2022-10-17T15:12:58;33.90;42.60
670;DHT22;317;48.758;9.302;2022-10-17T15:15:26;33.70;42.70
670;DHT22;317;48.758;9.302;2022-10-17T15:17:53;33.60;43.00
670;DHT22;317;48.758;9.302;2022-10-17T15:20:20;33.60;43.10
670;DHT22;317;48.758;9.302;2022-10-17T15:22:50;33.70;43.50
670;DHT22;317;48.758;9.302;2022-10-17T15:25:17;33.70;43.20
670;DHT22;317;48.758;9.302;2022-10-17T15:27:45;33.70;43.00
670;DHT22;317;48.758;9.302;2022-10-17T15:30:17;33.60;43.40
670;DHT22;317;48.758;9.302;2022-10-17T15:32:45;33.40;43.50
670;DHT22;317;48.758;9.302;2022-10-17T15:35:12;33.20;43.50
670;DHT22;317;48.758;9.302;2022-10-17T15:37:41;32.90;44.30
670;DHT22;317;48.758;9.302;2022-10-17T15:40:13;32.90;44.70
670;DHT22;317;48.758;9.302;2022-10-17T15:42:40;32.60;45.20
670;DHT22;317;48.758;9.302;2022-10-17T15:45:10;32.50;45.00
670;DHT22;317;48.758;9.302;2022-10-17T15:47:37;32.40;45.40
670;DHT22;317;48.758;9.302;2022-10-17T15:50:05;32.00;46.50
670;DHT22;317;48.758;9.302;2022-10-17T15:52:33;31.70;47.00
670;DHT22;317;48.758;9.302;2022-10-17T15:55:00;31.20;47.60
670;DHT22;317;48.758;9.302;2022-10-17T15:57:28;30.80;48.70
670;DHT22;317;48.758;9.302;2022-10-17T15:59:56;30.50;49.10
670;DHT22;317;48.758;9.302;2022-10-17T16:02:25;29.90;50.50
670;DHT22;317;48.758;9.302;2022-10-17T16:04:52;29.30;52.70
670;DHT22;317;48.758;9.302;2022-10-17T16:07:19;28.80;55.40
670;DHT22;317;48.758;9.302;2022-10-17T16:09:47;28.10;61.10
670;DHT22;317;48.758;9.302;2022-10-17T16:12:16;27.60;66.60
670;DHT22;317;48.758;9.302;2022-10-17T16:14:43;27.10;72.40
670;DHT22;317;48.758;9.302;2022-10-17T16:17:12;26.50;78.60
670;DHT22;317;48.758;9.302;2022-10-17T16:19:43;26.00;86.40
670;DHT22;317;48.758;9.302;2022-10-17T16:22:18;25.70;92.10
670;DHT22;317;48.758;9.302;2022-10-17T16:24:45;25.30;93.30
670;DHT22;317;48.758;9.302;2022-10-17T16:27:12;24.90;96.90
670;DHT22;317;48.758;9.302;2022-10-17T16:29:39;24.50;99.20
670;DHT22;317;48.758;9.302;2022-10-17T16:32:06;24.30;99.90
670;DHT22;317;48.758;9.302;2022-10-17T16:34:32;23.90;99.90
670;DHT22;317;48.758;9.302;2022-10-17T16:37:00;23.70;99.90
670;DHT22;317;48.758;9.302;2022-10-17T16:39:27;23.50;99.90
670;DHT22;317;48.758;9.302;2022-10-17T16:41:54;23.20;99.90
670;DHT22;317;48.758;9.302;2022-10-17T16:44:21;22.80;99.90
670;DHT22;317;48.758;9.302;2022-10-17T16:46:48;22.40;99.90
670;DHT22;317;48.758;9.302;2022-10-17T16:49:14;22.20;99.90
670;DHT22;317;48.758;9.302;2022-10-17T16:51:44;22.00;99.90
670;DHT22;317;48.758;9.302;2022-10-17T16:54:12;21.90;99.90
670;DHT22;317;48.758;9.302;2022-10-17T16:56:39;21.50;99.90
670;DHT22;317;48.758;9.302;2022-10-17T16:59:08;21.50;99.90